sensor_id;sensor_type;location;lat;lon;timestamp;P1;durP1;ratioP1;P2;durP2;ratioP2
19257;SDS011;9763;48.780;9.212;2022-10-29T00:01:41;3.43;;;1.77;;
19257;SDS011;9763;48.780;9.212;2022-10-29T00:05:07;5.33;;;2.13;;
19257;SDS011;9763;48.780;9.212;2022-10-29T00:08:32;3.63;;;1.87;;
19257;SDS011;9763;48.780;9.212;2022-10-29T00:11:58;1.93;;;1.70;;
19257;SDS011;9763;48.780;9.212;2022-10-29T00:15:21;6.77;;;2.30;;
19257;SDS011;9763;48.780;9.212;2022-10-29T00:18:45;1.97;;;1.80;;
19257;SDS011;9763;48.780;9.212;2022-10-29T00:22:10;4.33;;;1.70;;
19257;SDS011;9763;48.780;9.212;2022-10-29T00:25:34;5.60;;;1.87;;
19257;SDS011;9763;48.780;9.212;2022-10-29T00:28:57;3.20;;;1.80;;
19257;SDS011;9763;48.780;9.212;2022-10-29T00:32:20;3.57;;;1.83;;
19257;SDS011;9763;48.780;9.212;2022-10-29T00:35:53;4.33;;;1.90;;
19257;SDS011;9763;48.780;9.212;2022-10-29T00:39:19;2.37;;;2.17;;
19257;SDS011;9763;48.780;9.212;2022-10-29T00:42:42;3.00;;;1.83;;
19257;SDS011;9763;48.780;9.212;2022-10-29T00:46:06;2.07;;;1.70;;
19257;SDS011;9763;48.780;9.212;2022-10-29T00:49:34;2.40;;;1.70;;
19257;SDS011;9763;48.780;9.212;2022-10-29T00:53:01;2.50;;;1.73;;
19257;SDS011;9763;48.780;9.212;2022-10-29T00:56:26;2.60;;;1.90;;
19257;SDS011;9763;48.780;9.212;2022-10-29T00:59:55;4.17;;;2.17;;
19257;SDS011;9763;48.780;9.212;2022-10-29T01:03:19;3.40;;;2.17;;
19257;SDS011;9763;48.780;9.212;2022-10-29T01:06:42;3.97;;;2.27;;
19257;SDS011;9763;48.780;9.212;2022-10-29T01:10:08;3.47;;;2.47;;
19257;SDS011;9763;48.780;9.212;2022-10-29T01:13:39;2.17;;;1.97;;
19257;SDS011;9763;48.780;9.212;2022-10-29T01:17:22;3.37;;;1.90;;
19257;SDS011;9763;48.780;9.212;2022-10-29T01:21:09;3.03;;;2.03;;
19257;SDS011;9763;48.780;9.212;2022-10-29T01:29:19;3.40;;;2.00;;
19257;SDS011;9763;48.780;9.212;2022-10-29T01:33:03;2.50;;;1.97;;
19257;SDS011;9763;48.780;9.212;2022-10-29T01:36:37;3.47;;;1.93;;
19257;SDS011;9763;48.780;9.212;2022-10-29T01:40:12;4.03;;;2.13;;
19257;SDS011;9763;48.780;9.212;2022-10-29T01:43:46;2.23;;;1.90;;
19257;SDS011;9763;48.780;9.212;2022-10-29T01:47:17;2.73;;;2.07;;
19257;SDS011;9763;48.780;9.212;2022-10-29T01:50:46;3.50;;;2.23;;
19257;SDS011;9763;48.780;9.212;2022-10-29T01:54:16;3.87;;;2.07;;
19257;SDS011;9763;48.780;9.212;2022-10-29T01:57:39;4.07;;;2.10;;
19257;SDS011;9763;48.780;9.212;2022-10-29T02:01:05;7.00;;;1.80;;
19257;SDS011;9763;48.780;9.212;2022-10-29T02:04:58;4.60;;;2.00;;
19257;SDS011;9763;48.780;9.212;2022-10-29T02:08:36;2.60;;;2.00;;
19257;SDS011;9763;48.780;9.212;2022-10-29T02:12:17;2.30;;;1.53;;
19257;SDS011;9763;48.780;9.212;2022-10-29T02:15:47;5.43;;;2.30;;
19257;SDS011;9763;48.780;9.212;2022-10-29T02:19:17;4.10;;;2.07;;
19257;SDS011;9763;48.780;9.212;2022-10-29T02:22:41;2.53;;;1.97;;
19257;SDS011;9763;48.780;9.212;2022-10-29T02:26:06;2.40;;;1.73;;
19257;SDS011;9763;48.780;9.212;2022-10-29T02:29:30;2.30;;;2.10;;
19257;SDS011;9763;48.780;9.212;2022-10-29T02:32:53;2.83;;;1.73;;
19257;SDS011;9763;48.780;9.212;2022-10-29T02:36:17;2.53;;;1.93;;
19257;SDS011;9763;48.780;9.212;2022-10-29T02:39:40;4.60;;;2.17;;
19257;SDS011;9763;48.780;9.212;2022-10-29T02:43:05;3.23;;;2.10;;
19257;SDS011;9763;48.780;9.212;2022-10-29T02:46:29;4.77;;;1.80;;
19257;SDS011;9763;48.780;9.212;2022-10-29T02:49:56;3.20;;;1.87;;
19257;SDS011;9763;48.780;9.212;2022-10-29T02:53:19;2.10;;;1.70;;
19257;SDS011;9763;48.780;9.212;2022-10-29T02:56:43;2.80;;;2.10;;
19257;SDS011;9763;48.780;9.212;2022-10-29T03:00:09;6.03;;;1.87;;
19257;SDS011;9763;48.780;9.212;2022-10-29T03:03:34;2.23;;;1.80;;
19257;SDS011;9763;48.780;9.212;2022-10-29T03:06:58;2.47;;;2.27;;
19257;SDS011;9763;48.780;9.212;2022-10-29T03:10:21;2.50;;;2.23;;
19257;SDS011;9763;48.780;9.212;2022-10-29T03:13:45;3.60;;;2.10;;
19257;SDS011;9763;48.780;9.212;2022-10-29T03:17:10;3.13;;;2.17;;
19257;SDS011;9763;48.780;9.212;2022-10-29T03:20:33;2.00;;;1.73;;
19257;SDS011;9763;48.780;9.212;2022-10-29T03:23:57;3.23;;;1.80;;
19257;SDS011;9763;48.780;9.212;2022-10-29T03:27:20;4.03;;;1.90;;
19257;SDS011;9763;48.780;9.212;2022-10-29T03:30:43;2.30;;;1.80;;
19257;SDS011;9763;48.780;9.212;2022-10-29T03:34:08;2.60;;;2.03;;
19257;SDS011;9763;48.780;9.212;2022-10-29T03:37:32;3.17;;;2.03;;
19257;SDS011;9763;48.780;9.212;2022-10-29T03:40:55;2.70;;;2.30;;
19257;SDS011;9763;48.780;9.212;2022-10-29T03:44:19;2.10;;;1.90;;
19257;SDS011;9763;48.780;9.212;2022-10-29T03:47:43;3.57;;;2.03;;
19257;SDS011;9763;48.780;9.212;2022-10-29T03:51:08;2.37;;;1.83;;
19257;SDS011;9763;48.780;9.212;2022-10-29T03:54:32;2.37;;;2.17;;
19257;SDS011;9763;48.780;9.212;2022-10-29T03:57:56;2.40;;;2.10;;
19257;SDS011;9763;48.780;9.212;2022-10-29T04:01:19;5.17;;;2.30;;
19257;SDS011;9763;48.780;9.212;2022-10-29T04:04:43;2.73;;;1.93;;
19257;SDS011;9763;48.780;9.212;2022-10-29T04:08:08;2.77;;;1.93;;
19257;SDS011;9763;48.780;9.212;2022-10-29T04:11:31;2.83;;;2.37;;
19257;SDS011;9763;48.780;9.212;2022-10-29T04:14:55;2.43;;;1.90;;
19257;SDS011;9763;48.780;9.212;2022-10-29T04:18:18;3.60;;;1.90;;
19257;SDS011;9763;48.780;9.212;2022-10-29T04:21:42;2.10;;;1.90;;
19257;SDS011;9763;48.780;9.212;2022-10-29T04:25:27;2.83;;;1.83;;
19257;SDS011;9763;48.780;9.212;2022-10-29T04:29:10;2.07;;;1.87;;
19257;SDS011;9763;48.780;9.212;2022-10-29T04:32:34;4.23;;;2.00;;
19257;SDS011;9763;48.780;9.212;2022-10-29T04:35:57;2.97;;;1.97;;
19257;SDS011;9763;48.780;9.212;2022-10-29T04:39:21;3.97;;;2.13;;
19257;SDS011;9763;48.780;9.212;2022-10-29T04:42:46;2.53;;;2.20;;
19257;SDS011;9763;48.780;9.212;2022-10-29T04:46:09;4.27;;;2.17;;
19257;SDS011;9763;48.780;9.212;2022-10-29T04:49:33;2.60;;;2.17;;
19257;SDS011;9763;48.780;9.212;2022-10-29T04:52:57;2.93;;;2.20;;
19257;SDS011;9763;48.780;9.212;2022-10-29T04:56:21;3.27;;;2.13;;
19257;SDS011;9763;48.780;9.212;2022-10-29T04:59:45;4.07;;;2.10;;
19257;SDS011;9763;48.780;9.212;2022-10-29T05:03:09;4.10;;;2.50;;
19257;SDS011;9763;48.780;9.212;2022-10-29T05:06:32;2.67;;;1.87;;
19257;SDS011;9763;48.780;9.212;2022-10-29T05:09:56;3.53;;;2.30;;
19257;SDS011;9763;48.780;9.212;2022-10-29T05:13:19;3.83;;;1.87;;
19257;SDS011;9763;48.780;9.212;2022-10-29T05:16:44;2.80;;;2.07;;
19257;SDS011;9763;48.780;9.212;2022-10-29T05:20:08;3.93;;;2.20;;
19257;SDS011;9763;48.780;9.212;2022-10-29T05:23:32;2.47;;;2.00;;
19257;SDS011;9763;48.780;9.212;2022-10-29T05:26:56;3.40;;;2.10;;
19257;SDS011;9763;48.780;9.212;2022-10-29T05:30:19;3.80;;;1.77;;
19257;SDS011;9763;48.780;9.212;2022-10-29T05:33:44;3.27;;;1.90;;
19257;SDS011;9763;48.780;9.212;2022-10-29T05:37:12;4.93;;;2.40;;
19257;SDS011;9763;48.780;9.212;2022-10-29T05:40:36;3.53;;;1.90;;
19257;SDS011;9763;48.780;9.212;2022-10-29T05:44:01;4.13;;;1.87;;
19257;SDS011;9763;48.780;9.212;2022-10-29T05:47:24;3.57;;;1.70;;
19257;SDS011;9763;48.780;9.212;2022-10-29T05:50:49;2.73;;;1.83;;
19257;SDS011;9763;48.780;9.212;2022-10-29T05:54:12;3.83;;;2.13;;
19257;SDS011;9763;48.780;9.212;2022-10-29T05:57:36;4.50;;;2.23;;
19257;SDS011;9763;48.780;9.212;2022-10-29T06:00:59;5.83;;;1.90;;
19257;SDS011;9763;48.780;9.212;2022-10-29T06:04:27;8.20;;;2.00;;
19257;SDS011;9763;48.780;9.212;2022-10-29T06:07:55;2.10;;;1.90;;
19257;SDS011;9763;48.780;9.212;2022-10-29T06:11:21;2.03;;;1.73;;
19257;SDS011;9763;48.780;9.212;2022-10-29T06:14:45;2.13;;;1.83;;
19257;SDS011;9763;48.780;9.212;2022-10-29T06:18:09;2.87;;;2.23;;
19257;SDS011;9763;48.780;9.212;2022-10-29T06:21:33;2.30;;;1.77;;
19257;SDS011;9763;48.780;9.212;2022-10-29T06:24:58;4.40;;;2.03;;
19257;SDS011;9763;48.780;9.212;2022-10-29T06:28:22;3.07;;;2.00;;
19257;SDS011;9763;48.780;9.212;2022-10-29T06:31:49;2.87;;;1.60;;
19257;SDS011;9763;48.780;9.212;2022-10-29T06:35:13;3.67;;;2.07;;
19257;SDS011;9763;48.780;9.212;2022-10-29T06:38:36;2.97;;;2.00;;
19257;SDS011;9763;48.780;9.212;2022-10-29T06:42:01;1.90;;;1.60;;
19257;SDS011;9763;48.780;9.212;2022-10-29T06:45:25;4.03;;;2.67;;
19257;SDS011;9763;48.780;9.212;2022-10-29T06:48:49;3.43;;;2.33;;
19257;SDS011;9763;48.780;9.212;2022-10-29T06:52:13;5.27;;;3.20;;
19257;SDS011;9763;48.780;9.212;2022-10-29T06:55:36;2.60;;;1.97;;
19257;SDS011;9763;48.780;9.212;2022-10-29T06:59:01;3.93;;;2.70;;
19257;SDS011;9763;48.780;9.212;2022-10-29T07:02:25;4.73;;;2.47;;
19257;SDS011;9763;48.780;9.212;2022-10-29T07:05:53;2.97;;;2.20;;
19257;SDS011;9763;48.780;9.212;2022-10-29T07:09:18;2.53;;;2.33;;
19257;SDS011;9763;48.780;9.212;2022-10-29T07:12:42;3.50;;;2.10;;
19257;SDS011;9763;48.780;9.212;2022-10-29T07:16:07;2.50;;;1.90;;
19257;SDS011;9763;48.780;9.212;2022-10-29T07:19:32;1.93;;;1.80;;
19257;SDS011;9763;48.780;9.212;2022-10-29T07:22:56;3.20;;;1.90;;
19257;SDS011;9763;48.780;9.212;2022-10-29T07:26:19;3.60;;;2.40;;
19257;SDS011;9763;48.780;9.212;2022-10-29T07:29:43;6.07;;;1.90;;
19257;SDS011;9763;48.780;9.212;2022-10-29T07:33:08;2.70;;;2.50;;
19257;SDS011;9763;48.780;9.212;2022-10-29T07:36:31;3.60;;;2.20;;
19257;SDS011;9763;48.780;9.212;2022-10-29T07:39:55;2.20;;;1.80;;
19257;SDS011;9763;48.780;9.212;2022-10-29T07:43:19;3.60;;;1.87;;
19257;SDS011;9763;48.780;9.212;2022-10-29T07:46:43;2.80;;;2.17;;
19257;SDS011;9763;48.780;9.212;2022-10-29T07:50:09;2.50;;;2.30;;
19257;SDS011;9763;48.780;9.212;2022-10-29T07:53:33;3.50;;;2.67;;
19257;SDS011;9763;48.780;9.212;2022-10-29T07:56:56;4.17;;;3.00;;
19257;SDS011;9763;48.780;9.212;2022-10-29T08:00:20;3.90;;;2.50;;
19257;SDS011;9763;48.780;9.212;2022-10-29T08:03:44;5.30;;;2.50;;
19257;SDS011;9763;48.780;9.212;2022-10-29T08:07:08;6.40;;;2.83;;
19257;SDS011;9763;48.780;9.212;2022-10-29T08:10:32;4.10;;;2.90;;
19257;SDS011;9763;48.780;9.212;2022-10-29T08:13:57;4.90;;;2.00;;
19257;SDS011;9763;48.780;9.212;2022-10-29T08:17:21;3.10;;;2.80;;
19257;SDS011;9763;48.780;9.212;2022-10-29T08:20:45;3.03;;;2.53;;
19257;SDS011;9763;48.780;9.212;2022-10-29T08:24:10;4.53;;;2.80;;
19257;SDS011;9763;48.780;9.212;2022-10-29T08:27:33;4.80;;;3.30;;
19257;SDS011;9763;48.780;9.212;2022-10-29T08:30:57;4.47;;;2.77;;
19257;SDS011;9763;48.780;9.212;2022-10-29T08:34:20;5.33;;;2.47;;
19257;SDS011;9763;48.780;9.212;2022-10-29T08:37:44;2.63;;;2.43;;
19257;SDS011;9763;48.780;9.212;2022-10-29T08:41:13;5.83;;;2.83;;
19257;SDS011;9763;48.780;9.212;2022-10-29T08:44:59;4.37;;;2.57;;
19257;SDS011;9763;48.780;9.212;2022-10-29T08:48:38;3.77;;;2.27;;
19257;SDS011;9763;48.780;9.212;2022-10-29T08:52:10;7.53;;;2.40;;
19257;SDS011;9763;48.780;9.212;2022-10-29T08:55:40;2.20;;;2.00;;
19257;SDS011;9763;48.780;9.212;2022-10-29T08:59:07;5.50;;;2.67;;
19257;SDS011;9763;48.780;9.212;2022-10-29T09:02:36;3.20;;;2.70;;
19257;SDS011;9763;48.780;9.212;2022-10-29T09:06:04;3.17;;;2.13;;
19257;SDS011;9763;48.780;9.212;2022-10-29T09:09:36;4.17;;;2.10;;
19257;SDS011;9763;48.780;9.212;2022-10-29T09:13:08;3.20;;;2.13;;
19257;SDS011;9763;48.780;9.212;2022-10-29T09:16:52;6.03;;;2.20;;
19257;SDS011;9763;48.780;9.212;2022-10-29T09:20:25;2.50;;;2.07;;
19257;SDS011;9763;48.780;9.212;2022-10-29T09:24:07;2.63;;;1.77;;
19257;SDS011;9763;48.780;9.212;2022-10-29T09:27:41;3.50;;;2.23;;
19257;SDS011;9763;48.780;9.212;2022-10-29T09:31:28;6.07;;;2.10;;
19257;SDS011;9763;48.780;9.212;2022-10-29T09:35:03;4.00;;;2.43;;
19257;SDS011;9763;48.780;9.212;2022-10-29T09:38:35;4.00;;;2.60;;
19257;SDS011;9763;48.780;9.212;2022-10-29T09:42:07;6.47;;;2.50;;
19257;SDS011;9763;48.780;9.212;2022-10-29T09:45:40;2.90;;;2.23;;
19257;SDS011;9763;48.780;9.212;2022-10-29T09:49:13;2.97;;;2.30;;
19257;SDS011;9763;48.780;9.212;2022-10-29T09:52:57;4.53;;;2.40;;
19257;SDS011;9763;48.780;9.212;2022-10-29T09:56:21;5.43;;;2.53;;
19257;SDS011;9763;48.780;9.212;2022-10-29T09:59:46;5.90;;;2.20;;
19257;SDS011;9763;48.780;9.212;2022-10-29T10:03:17;3.40;;;1.80;;
19257;SDS011;9763;48.780;9.212;2022-10-29T10:07:02;5.07;;;2.40;;
19257;SDS011;9763;48.780;9.212;2022-10-29T10:10:30;3.67;;;2.33;;
19257;SDS011;9763;48.780;9.212;2022-10-29T10:13:56;2.57;;;2.27;;
19257;SDS011;9763;48.780;9.212;2022-10-29T10:17:22;3.90;;;2.00;;
19257;SDS011;9763;48.780;9.212;2022-10-29T10:20:46;6.13;;;2.30;;
19257;SDS011;9763;48.780;9.212;2022-10-29T10:24:27;4.17;;;2.37;;
19257;SDS011;9763;48.780;9.212;2022-10-29T10:27:55;4.67;;;2.10;;
19257;SDS011;9763;48.780;9.212;2022-10-29T10:31:20;3.80;;;2.20;;
19257;SDS011;9763;48.780;9.212;2022-10-29T10:34:43;5.33;;;2.13;;
19257;SDS011;9763;48.780;9.212;2022-10-29T10:38:07;3.77;;;2.70;;
19257;SDS011;9763;48.780;9.212;2022-10-29T10:41:32;5.43;;;3.07;;
19257;SDS011;9763;48.780;9.212;2022-10-29T10:45:00;6.80;;;3.00;;
19257;SDS011;9763;48.780;9.212;2022-10-29T10:48:35;6.27;;;2.57;;
19257;SDS011;9763;48.780;9.212;2022-10-29T10:51:58;6.87;;;2.70;;
19257;SDS011;9763;48.780;9.212;2022-10-29T10:55:27;2.37;;;2.17;;
19257;SDS011;9763;48.780;9.212;2022-10-29T10:58:57;3.40;;;2.27;;
19257;SDS011;9763;48.780;9.212;2022-10-29T11:02:32;5.33;;;2.40;;
19257;SDS011;9763;48.780;9.212;2022-10-29T11:06:05;3.00;;;2.03;;
19257;SDS011;9763;48.780;9.212;2022-10-29T11:09:37;3.13;;;2.20;;
19257;SDS011;9763;48.780;9.212;2022-10-29T11:13:09;2.77;;;2.10;;
19257;SDS011;9763;48.780;9.212;2022-10-29T11:16:38;2.13;;;1.93;;
19257;SDS011;9763;48.780;9.212;2022-10-29T11:20:19;4.20;;;2.50;;
19257;SDS011;9763;48.780;9.212;2022-10-29T11:23:51;6.00;;;2.33;;
19257;SDS011;9763;48.780;9.212;2022-10-29T11:27:25;3.83;;;2.60;;
19257;SDS011;9763;48.780;9.212;2022-10-29T11:31:02;3.70;;;2.33;;
19257;SDS011;9763;48.780;9.212;2022-10-29T11:34:41;3.80;;;2.37;;
19257;SDS011;9763;48.780;9.212;2022-10-29T11:38:17;3.37;;;2.10;;
19257;SDS011;9763;48.780;9.212;2022-10-29T11:41:47;3.33;;;2.40;;
19257;SDS011;9763;48.780;9.212;2022-10-29T11:45:19;6.47;;;2.40;;
19257;SDS011;9763;48.780;9.212;2022-10-29T11:48:57;4.73;;;2.70;;
19257;SDS011;9763;48.780;9.212;2022-10-29T11:52:38;5.30;;;2.30;;
19257;SDS011;9763;48.780;9.212;2022-10-29T11:56:12;2.63;;;1.97;;
19257;SDS011;9763;48.780;9.212;2022-10-29T12:00:00;3.50;;;2.30;;
19257;SDS011;9763;48.780;9.212;2022-10-29T12:03:45;3.77;;;2.47;;
19257;SDS011;9763;48.780;9.212;2022-10-29T12:07:34;4.37;;;2.40;;
19257;SDS011;9763;48.780;9.212;2022-10-29T12:11:15;11.13;;;2.60;;
19257;SDS011;9763;48.780;9.212;2022-10-29T12:14:47;4.50;;;2.70;;
19257;SDS011;9763;48.780;9.212;2022-10-29T12:18:25;6.07;;;3.10;;
19257;SDS011;9763;48.780;9.212;2022-10-29T12:22:00;3.17;;;2.87;;
19257;SDS011;9763;48.780;9.212;2022-10-29T12:25:50;3.50;;;2.90;;
19257;SDS011;9763;48.780;9.212;2022-10-29T12:29:28;4.70;;;3.00;;
19257;SDS011;9763;48.780;9.212;2022-10-29T12:33:05;4.00;;;3.10;;
19257;SDS011;9763;48.780;9.212;2022-10-29T12:36:41;5.03;;;2.40;;
19257;SDS011;9763;48.780;9.212;2022-10-29T12:40:18;4.33;;;2.60;;
19257;SDS011;9763;48.780;9.212;2022-10-29T12:43:46;4.13;;;3.00;;
19257;SDS011;9763;48.780;9.212;2022-10-29T12:47:15;4.03;;;2.83;;
19257;SDS011;9763;48.780;9.212;2022-10-29T12:50:48;5.60;;;3.23;;
19257;SDS011;9763;48.780;9.212;2022-10-29T12:54:28;4.07;;;2.60;;
19257;SDS011;9763;48.780;9.212;2022-10-29T13:02:21;5.13;;;2.50;;
19257;SDS011;9763;48.780;9.212;2022-10-29T13:14:15;4.13;;;2.47;;
19257;SDS011;9763;48.780;9.212;2022-10-29T13:17:48;3.00;;;2.30;;
19257;SDS011;9763;48.780;9.212;2022-10-29T13:25:26;4.70;;;2.30;;
19257;SDS011;9763;48.780;9.212;2022-10-29T13:29:05;2.80;;;2.30;;
19257;SDS011;9763;48.780;9.212;2022-10-29T13:32:33;10.50;;;2.87;;
19257;SDS011;9763;48.780;9.212;2022-10-29T13:36:00;3.13;;;2.50;;
19257;SDS011;9763;48.780;9.212;2022-10-29T13:39:25;3.93;;;2.60;;
19257;SDS011;9763;48.780;9.212;2022-10-29T13:42:52;4.70;;;2.63;;
19257;SDS011;9763;48.780;9.212;2022-10-29T13:46:26;4.10;;;2.73;;
19257;SDS011;9763;48.780;9.212;2022-10-29T13:50:05;7.60;;;2.70;;
19257;SDS011;9763;48.780;9.212;2022-10-29T13:53:33;3.93;;;2.50;;
19257;SDS011;9763;48.780;9.212;2022-10-29T13:57:07;8.13;;;2.60;;
19257;SDS011;9763;48.780;9.212;2022-10-29T14:00:40;3.40;;;2.53;;
19257;SDS011;9763;48.780;9.212;2022-10-29T14:04:11;4.30;;;2.30;;
19257;SDS011;9763;48.780;9.212;2022-10-29T14:07:48;3.00;;;2.53;;
19257;SDS011;9763;48.780;9.212;2022-10-29T14:11:19;5.50;;;2.50;;
19257;SDS011;9763;48.780;9.212;2022-10-29T14:14:50;3.23;;;2.10;;
19257;SDS011;9763;48.780;9.212;2022-10-29T14:18:25;2.63;;;1.87;;
19257;SDS011;9763;48.780;9.212;2022-10-29T14:21:49;5.27;;;2.43;;
19257;SDS011;9763;48.780;9.212;2022-10-29T14:25:24;3.10;;;2.80;;
19257;SDS011;9763;48.780;9.212;2022-10-29T14:28:53;4.70;;;2.60;;
19257;SDS011;9763;48.780;9.212;2022-10-29T14:32:17;3.80;;;2.47;;
19257;SDS011;9763;48.780;9.212;2022-10-29T14:35:43;3.40;;;2.47;;
19257;SDS011;9763;48.780;9.212;2022-10-29T14:39:11;4.43;;;2.30;;
19257;SDS011;9763;48.780;9.212;2022-10-29T14:42:53;4.73;;;2.40;;
19257;SDS011;9763;48.780;9.212;2022-10-29T14:46:21;7.10;;;2.53;;
19257;SDS011;9763;48.780;9.212;2022-10-29T14:49:48;5.43;;;3.10;;
19257;SDS011;9763;48.780;9.212;2022-10-29T14:53:22;4.23;;;2.60;;
19257;SDS011;9763;48.780;9.212;2022-10-29T14:56:53;3.60;;;2.67;;
19257;SDS011;9763;48.780;9.212;2022-10-29T15:00:21;3.27;;;2.50;;
19257;SDS011;9763;48.780;9.212;2022-10-29T15:03:54;3.10;;;2.40;;
19257;SDS011;9763;48.780;9.212;2022-10-29T15:07:30;3.03;;;2.67;;
19257;SDS011;9763;48.780;9.212;2022-10-29T15:10:56;5.10;;;2.83;;
19257;SDS011;9763;48.780;9.212;2022-10-29T15:14:23;8.50;;;3.20;;
19257;SDS011;9763;48.780;9.212;2022-10-29T15:17:56;5.53;;;3.00;;
19257;SDS011;9763;48.780;9.212;2022-10-29T15:21:26;4.17;;;2.87;;
19257;SDS011;9763;48.780;9.212;2022-10-29T15:24:52;5.10;;;2.70;;
19257;SDS011;9763;48.780;9.212;2022-10-29T15:28:18;6.20;;;3.30;;
19257;SDS011;9763;48.780;9.212;2022-10-29T15:31:46;3.83;;;2.30;;
19257;SDS011;9763;48.780;9.212;2022-10-29T15:35:12;3.07;;;2.50;;
19257;SDS011;9763;48.780;9.212;2022-10-29T15:42:43;4.30;;;3.03;;
19257;SDS011;9763;48.780;9.212;2022-10-29T15:46:07;3.57;;;2.90;;
19257;SDS011;9763;48.780;9.212;2022-10-29T15:49:33;3.90;;;3.57;;
19257;SDS011;9763;48.780;9.212;2022-10-29T15:52:57;6.57;;;5.57;;
19257;SDS011;9763;48.780;9.212;2022-10-29T15:56:27;9.13;;;5.87;;
19257;SDS011;9763;48.780;9.212;2022-10-29T15:59:53;7.70;;;6.20;;
19257;SDS011;9763;48.780;9.212;2022-10-29T16:03:18;7.37;;;5.50;;
19257;SDS011;9763;48.780;9.212;2022-10-29T16:06:43;7.43;;;4.27;;
19257;SDS011;9763;48.780;9.212;2022-10-29T16:10:08;5.87;;;3.83;;
19257;SDS011;9763;48.780;9.212;2022-10-29T16:13:40;5.60;;;3.30;;
19257;SDS011;9763;48.780;9.212;2022-10-29T16:17:07;4.77;;;3.10;;
19257;SDS011;9763;48.780;9.212;2022-10-29T16:20:35;6.80;;;2.57;;
19257;SDS011;9763;48.780;9.212;2022-10-29T16:23:59;4.47;;;2.90;;
19257;SDS011;9763;48.780;9.212;2022-10-29T16:27:23;4.70;;;2.73;;
19257;SDS011;9763;48.780;9.212;2022-10-29T16:30:49;6.93;;;2.87;;
19257;SDS011;9763;48.780;9.212;2022-10-29T16:34:16;3.20;;;2.30;;
19257;SDS011;9763;48.780;9.212;2022-10-29T16:37:45;3.07;;;2.17;;
19257;SDS011;9763;48.780;9.212;2022-10-29T16:41:09;4.17;;;2.53;;
19257;SDS011;9763;48.780;9.212;2022-10-29T16:44:35;3.80;;;2.20;;
19257;SDS011;9763;48.780;9.212;2022-10-29T16:48:00;4.80;;;2.77;;
19257;SDS011;9763;48.780;9.212;2022-10-29T16:51:27;5.03;;;2.40;;
19257;SDS011;9763;48.780;9.212;2022-10-29T16:54:50;2.53;;;1.83;;
19257;SDS011;9763;48.780;9.212;2022-10-29T16:58:14;8.57;;;4.18;;
19257;SDS011;9763;48.780;9.212;2022-10-29T17:01:39;8.20;;;4.40;;
19257;SDS011;9763;48.780;9.212;2022-10-29T17:05:07;5.90;;;3.40;;
19257;SDS011;9763;48.780;9.212;2022-10-29T17:08:32;3.43;;;2.70;;
19257;SDS011;9763;48.780;9.212;2022-10-29T17:11:56;2.47;;;2.13;;
19257;SDS011;9763;48.780;9.212;2022-10-29T17:15:20;3.07;;;2.23;;
19257;SDS011;9763;48.780;9.212;2022-10-29T17:18:43;5.87;;;2.73;;
19257;SDS011;9763;48.780;9.212;2022-10-29T17:22:12;2.47;;;2.27;;
19257;SDS011;9763;48.780;9.212;2022-10-29T17:25:38;3.97;;;2.50;;
19257;SDS011;9763;48.780;9.212;2022-10-29T17:29:02;4.20;;;2.47;;
19257;SDS011;9763;48.780;9.212;2022-10-29T17:32:25;5.27;;;3.00;;
19257;SDS011;9763;48.780;9.212;2022-10-29T17:35:59;3.67;;;2.53;;
19257;SDS011;9763;48.780;9.212;2022-10-29T17:39:26;6.27;;;2.87;;
19257;SDS011;9763;48.780;9.212;2022-10-29T17:42:49;5.73;;;2.83;;
19257;SDS011;9763;48.780;9.212;2022-10-29T17:46:13;5.13;;;2.93;;
19257;SDS011;9763;48.780;9.212;2022-10-29T17:49:38;5.87;;;3.20;;
19257;SDS011;9763;48.780;9.212;2022-10-29T17:53:02;4.60;;;3.13;;
19257;SDS011;9763;48.780;9.212;2022-10-29T17:56:27;3.73;;;2.70;;
19257;SDS011;9763;48.780;9.212;2022-10-29T17:59:53;4.07;;;2.80;;
19257;SDS011;9763;48.780;9.212;2022-10-29T18:03:16;2.50;;;2.30;;
19257;SDS011;9763;48.780;9.212;2022-10-29T18:06:40;3.73;;;3.10;;
19257;SDS011;9763;48.780;9.212;2022-10-29T18:10:04;4.33;;;3.03;;
19257;SDS011;9763;48.780;9.212;2022-10-29T18:13:31;4.23;;;2.90;;
19257;SDS011;9763;48.780;9.212;2022-10-29T18:16:56;3.70;;;3.00;;
19257;SDS011;9763;48.780;9.212;2022-10-29T18:20:19;4.93;;;2.73;;
19257;SDS011;9763;48.780;9.212;2022-10-29T18:23:43;2.97;;;2.67;;
19257;SDS011;9763;48.780;9.212;2022-10-29T18:27:06;3.30;;;2.87;;
19257;SDS011;9763;48.780;9.212;2022-10-29T18:30:31;4.10;;;2.83;;
19257;SDS011;9763;48.780;9.212;2022-10-29T18:33:55;3.40;;;2.83;;
19257;SDS011;9763;48.780;9.212;2022-10-29T18:37:19;6.47;;;3.30;;
19257;SDS011;9763;48.780;9.212;2022-10-29T18:40:42;4.97;;;3.30;;
19257;SDS011;9763;48.780;9.212;2022-10-29T18:44:06;4.13;;;3.10;;
19257;SDS011;9763;48.780;9.212;2022-10-29T18:47:31;3.80;;;3.17;;
19257;SDS011;9763;48.780;9.212;2022-10-29T18:51:00;5.87;;;3.10;;
19257;SDS011;9763;48.780;9.212;2022-10-29T18:54:26;3.40;;;2.47;;
19257;SDS011;9763;48.780;9.212;2022-10-29T18:57:49;3.10;;;2.80;;
19257;SDS011;9763;48.780;9.212;2022-10-29T19:01:14;4.90;;;2.17;;
19257;SDS011;9763;48.780;9.212;2022-10-29T19:04:41;7.17;;;2.70;;
19257;SDS011;9763;48.780;9.212;2022-10-29T19:08:05;3.27;;;2.60;;
19257;SDS011;9763;48.780;9.212;2022-10-29T19:11:32;5.00;;;2.77;;
19257;SDS011;9763;48.780;9.212;2022-10-29T19:14:56;7.37;;;2.93;;
19257;SDS011;9763;48.780;9.212;2022-10-29T19:18:20;3.90;;;2.50;;
19257;SDS011;9763;48.780;9.212;2022-10-29T19:21:45;4.63;;;3.23;;
19257;SDS011;9763;48.780;9.212;2022-10-29T19:25:08;4.57;;;3.00;;
19257;SDS011;9763;48.780;9.212;2022-10-29T19:28:32;2.90;;;2.50;;
19257;SDS011;9763;48.780;9.212;2022-10-29T19:31:56;5.63;;;2.63;;
19257;SDS011;9763;48.780;9.212;2022-10-29T19:35:20;2.83;;;2.50;;
19257;SDS011;9763;48.780;9.212;2022-10-29T19:38:45;3.97;;;2.87;;
19257;SDS011;9763;48.780;9.212;2022-10-29T19:42:09;4.00;;;2.97;;
19257;SDS011;9763;48.780;9.212;2022-10-29T19:45:33;3.90;;;2.73;;
19257;SDS011;9763;48.780;9.212;2022-10-29T19:49:00;3.47;;;2.50;;
19257;SDS011;9763;48.780;9.212;2022-10-29T19:52:24;6.00;;;2.80;;
19257;SDS011;9763;48.780;9.212;2022-10-29T19:55:49;4.57;;;2.93;;
19257;SDS011;9763;48.780;9.212;2022-10-29T19:59:13;2.83;;;2.50;;
19257;SDS011;9763;48.780;9.212;2022-10-29T20:02:37;3.40;;;2.30;;
19257;SDS011;9763;48.780;9.212;2022-10-29T20:06:00;4.10;;;2.47;;
19257;SDS011;9763;48.780;9.212;2022-10-29T20:09:24;3.43;;;2.47;;
19257;SDS011;9763;48.780;9.212;2022-10-29T20:12:49;5.23;;;2.60;;
19257;SDS011;9763;48.780;9.212;2022-10-29T20:16:14;2.77;;;2.20;;
19257;SDS011;9763;48.780;9.212;2022-10-29T20:19:41;4.87;;;3.07;;
19257;SDS011;9763;48.780;9.212;2022-10-29T20:23:04;11.40;;;3.40;;
19257;SDS011;9763;48.780;9.212;2022-10-29T20:26:28;3.40;;;2.67;;
19257;SDS011;9763;48.780;9.212;2022-10-29T20:29:53;3.73;;;2.10;;
19257;SDS011;9763;48.780;9.212;2022-10-29T20:33:17;4.43;;;2.63;;
19257;SDS011;9763;48.780;9.212;2022-10-29T20:36:40;3.60;;;3.00;;
19257;SDS011;9763;48.780;9.212;2022-10-29T20:40:07;4.17;;;3.13;;
19257;SDS011;9763;48.780;9.212;2022-10-29T20:43:32;4.77;;;3.20;;
19257;SDS011;9763;48.780;9.212;2022-10-29T20:46:57;3.63;;;2.53;;
19257;SDS011;9763;48.780;9.212;2022-10-29T20:50:21;5.63;;;2.90;;
19257;SDS011;9763;48.780;9.212;2022-10-29T20:53:44;4.03;;;2.60;;
19257;SDS011;9763;48.780;9.212;2022-10-29T20:57:07;3.30;;;2.60;;
19257;SDS011;9763;48.780;9.212;2022-10-29T21:00:31;3.57;;;2.73;;
19257;SDS011;9763;48.780;9.212;2022-10-29T21:03:56;8.30;;;3.47;;
19257;SDS011;9763;48.780;9.212;2022-10-29T21:07:19;4.40;;;2.73;;
19257;SDS011;9763;48.780;9.212;2022-10-29T21:10:43;3.07;;;2.80;;
19257;SDS011;9763;48.780;9.212;2022-10-29T21:14:06;4.70;;;2.30;;
19257;SDS011;9763;48.780;9.212;2022-10-29T21:17:31;5.07;;;2.57;;
19257;SDS011;9763;48.780;9.212;2022-10-29T21:21:02;4.80;;;2.60;;
19257;SDS011;9763;48.780;9.212;2022-10-29T21:24:26;2.53;;;2.23;;
19257;SDS011;9763;48.780;9.212;2022-10-29T21:27:52;2.27;;;2.03;;
19257;SDS011;9763;48.780;9.212;2022-10-29T21:31:17;4.07;;;2.95;;
19257;SDS011;9763;48.780;9.212;2022-10-29T21:34:41;4.13;;;2.63;;